sensor_id;sensor_type;location;lat;lon;timestamp;P1;durP1;ratioP1;P2;durP2;ratioP2
17826;SDS011;9038;48.208;16.308;2023-07-13T00:01:21;3.53;;;2.00;;
17826;SDS011;9038;48.208;16.308;2023-07-13T00:03:25;2.40;;;1.98;;
17826;SDS011;9038;48.208;16.308;2023-07-13T00:05:27;3.00;;;1.90;;
17826;SDS011;9038;48.208;16.308;2023-07-13T00:07:29;3.50;;;1.92;;
17826;SDS011;9038;48.208;16.308;2023-07-13T00:09:32;2.70;;;1.73;;
17826;SDS011;9038;48.208;16.308;2023-07-13T00:11:34;2.08;;;1.80;;
17826;SDS011;9038;48.208;16.308;2023-07-13T00:13:36;2.58;;;1.65;;
17826;SDS011;9038;48.208;16.308;2023-07-13T00:15:39;2.53;;;1.70;;
17826;SDS011;9038;48.208;16.308;2023-07-13T00:17:41;3.08;;;1.63;;
17826;SDS011;9038;48.208;16.308;2023-07-13T00:19:46;2.80;;;1.77;;
17826;SDS011;9038;48.208;16.308;2023-07-13T00:21:48;1.58;;;1.48;;
17826;SDS011;9038;48.208;16.308;2023-07-13T00:23:49;1.50;;;1.40;;
17826;SDS011;9038;48.208;16.308;2023-07-13T00:25:50;1.95;;;1.80;;
17826;SDS011;9038;48.208;16.308;2023-07-13T00:27:52;1.67;;;1.55;;
17826;SDS011;9038;48.208;16.308;2023-07-13T00:29:54;3.13;;;1.80;;
17826;SDS011;9038;48.208;16.308;2023-07-13T00:31:56;2.22;;;1.65;;
17826;SDS011;9038;48.208;16.308;2023-07-13T00:33:58;2.80;;;1.73;;
17826;SDS011;9038;48.208;16.308;2023-07-13T00:36:02;2.75;;;1.50;;
17826;SDS011;9038;48.208;16.308;2023-07-13T00:38:03;2.35;;;1.58;;
17826;SDS011;9038;48.208;16.308;2023-07-13T00:40:06;2.97;;;1.60;;
17826;SDS011;9038;48.208;16.308;2023-07-13T00:42:09;1.52;;;1.20;;
17826;SDS011;9038;48.208;16.308;2023-07-13T00:44:12;1.70;;;1.27;;
17826;SDS011;9038;48.208;16.308;2023-07-13T00:46:23;2.08;;;1.38;;
17826;SDS011;9038;48.208;16.308;2023-07-13T00:48:29;1.65;;;1.40;;
17826;SDS011;9038;48.208;16.308;2023-07-13T00:50:34;1.40;;;1.08;;
17826;SDS011;9038;48.208;16.308;2023-07-13T00:52:37;1.52;;;1.10;;
17826;SDS011;9038;48.208;16.308;2023-07-13T00:54:45;0.77;;;0.70;;
17826;SDS011;9038;48.208;16.308;2023-07-13T00:56:48;1.55;;;1.00;;
17826;SDS011;9038;48.208;16.308;2023-07-13T00:58:53;2.45;;;0.90;;
17826;SDS011;9038;48.208;16.308;2023-07-13T01:00:54;1.20;;;1.02;;
17826;SDS011;9038;48.208;16.308;2023-07-13T01:02:56;1.52;;;1.15;;
17826;SDS011;9038;48.208;16.308;2023-07-13T01:04:58;1.42;;;1.02;;
17826;SDS011;9038;48.208;16.308;2023-07-13T01:07:02;1.00;;;0.90;;
17826;SDS011;9038;48.208;16.308;2023-07-13T01:09:06;1.70;;;0.90;;
17826;SDS011;9038;48.208;16.308;2023-07-13T01:11:10;1.58;;;1.10;;
17826;SDS011;9038;48.208;16.308;2023-07-13T01:13:12;1.98;;;1.15;;
17826;SDS011;9038;48.208;16.308;2023-07-13T01:17:35;2.72;;;1.20;;
17826;SDS011;9038;48.208;16.308;2023-07-13T01:19:38;1.30;;;0.88;;
17826;SDS011;9038;48.208;16.308;2023-07-13T01:21:42;2.00;;;1.00;;
17826;SDS011;9038;48.208;16.308;2023-07-13T01:23:44;1.25;;;0.90;;
17826;SDS011;9038;48.208;16.308;2023-07-13T01:25:46;2.65;;;1.20;;
17826;SDS011;9038;48.208;16.308;2023-07-13T01:27:48;1.98;;;0.88;;
17826;SDS011;9038;48.208;16.308;2023-07-13T01:29:50;1.25;;;0.93;;
17826;SDS011;9038;48.208;16.308;2023-07-13T01:31:53;1.30;;;0.95;;
17826;SDS011;9038;48.208;16.308;2023-07-13T01:33:54;0.93;;;0.85;;
17826;SDS011;9038;48.208;16.308;2023-07-13T01:35:57;0.85;;;0.75;;
17826;SDS011;9038;48.208;16.308;2023-07-13T01:38:00;2.22;;;1.15;;
17826;SDS011;9038;48.208;16.308;2023-07-13T01:40:01;1.92;;;1.02;;
17826;SDS011;9038;48.208;16.308;2023-07-13T01:42:04;1.98;;;0.95;;
17826;SDS011;9038;48.208;16.308;2023-07-13T01:44:07;4.38;;;1.05;;
17826;SDS011;9038;48.208;16.308;2023-07-13T01:46:09;0.90;;;0.90;;
17826;SDS011;9038;48.208;16.308;2023-07-13T01:48:11;1.25;;;1.02;;
17826;SDS011;9038;48.208;16.308;2023-07-13T01:50:13;1.10;;;1.00;;
17826;SDS011;9038;48.208;16.308;2023-07-13T01:52:15;1.52;;;0.90;;
17826;SDS011;9038;48.208;16.308;2023-07-13T01:54:18;2.53;;;0.98;;
17826;SDS011;9038;48.208;16.308;2023-07-13T01:56:20;1.80;;;1.20;;
17826;SDS011;9038;48.208;16.308;2023-07-13T01:58:22;1.33;;;0.98;;
17826;SDS011;9038;48.208;16.308;2023-07-13T02:00:24;1.55;;;1.10;;
17826;SDS011;9038;48.208;16.308;2023-07-13T02:02:25;2.35;;;1.17;;
17826;SDS011;9038;48.208;16.308;2023-07-13T02:04:26;1.23;;;0.93;;
17826;SDS011;9038;48.208;16.308;2023-07-13T02:06:28;1.20;;;1.10;;
17826;SDS011;9038;48.208;16.308;2023-07-13T02:08:30;1.60;;;1.05;;
17826;SDS011;9038;48.208;16.308;2023-07-13T02:10:34;2.05;;;1.08;;
17826;SDS011;9038;48.208;16.308;2023-07-13T02:12:37;1.77;;;1.30;;
17826;SDS011;9038;48.208;16.308;2023-07-13T02:14:39;2.03;;;1.20;;
17826;SDS011;9038;48.208;16.308;2023-07-13T02:16:41;2.90;;;1.30;;
17826;SDS011;9038;48.208;16.308;2023-07-13T02:18:43;2.40;;;1.30;;
17826;SDS011;9038;48.208;16.308;2023-07-13T02:20:45;1.25;;;1.00;;
17826;SDS011;9038;48.208;16.308;2023-07-13T02:22:46;1.30;;;1.20;;
17826;SDS011;9038;48.208;16.308;2023-07-13T02:24:48;1.20;;;1.10;;
17826;SDS011;9038;48.208;16.308;2023-07-13T02:26:51;1.10;;;1.00;;
17826;SDS011;9038;48.208;16.308;2023-07-13T02:28:53;2.70;;;1.30;;
17826;SDS011;9038;48.208;16.308;2023-07-13T02:30:55;1.65;;;1.30;;
17826;SDS011;9038;48.208;16.308;2023-07-13T02:33:05;1.83;;;1.38;;
17826;SDS011;9038;48.208;16.308;2023-07-13T02:35:07;2.75;;;1.30;;
17826;SDS011;9038;48.208;16.308;2023-07-13T02:37:09;2.03;;;1.10;;
17826;SDS011;9038;48.208;16.308;2023-07-13T02:39:11;1.30;;;1.20;;
17826;SDS011;9038;48.208;16.308;2023-07-13T02:41:13;1.92;;;1.40;;
17826;SDS011;9038;48.208;16.308;2023-07-13T02:43:17;1.85;;;1.67;;
17826;SDS011;9038;48.208;16.308;2023-07-13T02:45:18;1.63;;;1.38;;
17826;SDS011;9038;48.208;16.308;2023-07-13T02:47:27;1.98;;;1.63;;
17826;SDS011;9038;48.208;16.308;2023-07-13T02:49:29;1.88;;;1.30;;
17826;SDS011;9038;48.208;16.308;2023-07-13T02:51:31;3.25;;;1.65;;
17826;SDS011;9038;48.208;16.308;2023-07-13T02:53:34;2.10;;;1.33;;
17826;SDS011;9038;48.208;16.308;2023-07-13T02:55:36;2.00;;;1.45;;
17826;SDS011;9038;48.208;16.308;2023-07-13T02:57:38;2.88;;;1.73;;
17826;SDS011;9038;48.208;16.308;2023-07-13T02:59:42;1.48;;;1.30;;
17826;SDS011;9038;48.208;16.308;2023-07-13T03:01:44;2.20;;;1.52;;
17826;SDS011;9038;48.208;16.308;2023-07-13T03:03:46;3.08;;;1.65;;
17826;SDS011;9038;48.208;16.308;2023-07-13T03:05:46;2.60;;;1.63;;
17826;SDS011;9038;48.208;16.308;2023-07-13T03:07:50;3.92;;;1.50;;
17826;SDS011;9038;48.208;16.308;2023-07-13T03:09:53;2.72;;;1.35;;
17826;SDS011;9038;48.208;16.308;2023-07-13T03:11:56;2.83;;;1.60;;
17826;SDS011;9038;48.208;16.308;2023-07-13T03:13:58;1.65;;;1.42;;
17826;SDS011;9038;48.208;16.308;2023-07-13T03:16:01;2.17;;;1.50;;
17826;SDS011;9038;48.208;16.308;2023-07-13T03:18:03;2.55;;;1.70;;
17826;SDS011;9038;48.208;16.308;2023-07-13T03:20:05;1.42;;;1.20;;
17826;SDS011;9038;48.208;16.308;2023-07-13T03:22:09;1.75;;;1.40;;
17826;SDS011;9038;48.208;16.308;2023-07-13T03:24:11;5.57;;;2.47;;
17826;SDS011;9038;48.208;16.308;2023-07-13T03:26:14;2.75;;;1.70;;
17826;SDS011;9038;48.208;16.308;2023-07-13T03:28:18;1.77;;;1.27;;
17826;SDS011;9038;48.208;16.308;2023-07-13T03:30:20;1.85;;;1.42;;
17826;SDS011;9038;48.208;16.308;2023-07-13T03:32:23;2.90;;;1.50;;
17826;SDS011;9038;48.208;16.308;2023-07-13T03:34:25;3.17;;;1.50;;
17826;SDS011;9038;48.208;16.308;2023-07-13T03:36:27;5.05;;;1.60;;
17826;SDS011;9038;48.208;16.308;2023-07-13T03:38:30;2.17;;;1.85;;
17826;SDS011;9038;48.208;16.308;2023-07-13T03:40:32;2.58;;;1.67;;
17826;SDS011;9038;48.208;16.308;2023-07-13T03:42:34;3.45;;;1.55;;
17826;SDS011;9038;48.208;16.308;2023-07-13T03:44:36;4.75;;;1.65;;
17826;SDS011;9038;48.208;16.308;2023-07-13T03:46:38;4.03;;;1.92;;
17826;SDS011;9038;48.208;16.308;2023-07-13T03:48:41;2.08;;;1.77;;
17826;SDS011;9038;48.208;16.308;2023-07-13T03:50:44;3.95;;;1.55;;
17826;SDS011;9038;48.208;16.308;2023-07-13T03:52:46;4.88;;;2.03;;
17826;SDS011;9038;48.208;16.308;2023-07-13T03:54:48;4.95;;;1.60;;
17826;SDS011;9038;48.208;16.308;2023-07-13T03:56:50;1.90;;;1.30;;
17826;SDS011;9038;48.208;16.308;2023-07-13T03:58:52;2.20;;;1.60;;
17826;SDS011;9038;48.208;16.308;2023-07-13T04:00:54;4.15;;;1.60;;
17826;SDS011;9038;48.208;16.308;2023-07-13T04:02:55;3.30;;;1.70;;
17826;SDS011;9038;48.208;16.308;2023-07-13T04:04:59;1.98;;;1.67;;
17826;SDS011;9038;48.208;16.308;2023-07-13T04:07:01;3.63;;;1.63;;
17826;SDS011;9038;48.208;16.308;2023-07-13T04:09:03;2.92;;;1.70;;
17826;SDS011;9038;48.208;16.308;2023-07-13T04:11:06;3.83;;;2.10;;
17826;SDS011;9038;48.208;16.308;2023-07-13T04:13:08;2.75;;;1.90;;
17826;SDS011;9038;48.208;16.308;2023-07-13T04:15:10;2.50;;;1.85;;
17826;SDS011;9038;48.208;16.308;2023-07-13T04:17:12;2.05;;;1.42;;
17826;SDS011;9038;48.208;16.308;2023-07-13T04:19:14;7.32;;;2.10;;
17826;SDS011;9038;48.208;16.308;2023-07-13T04:21:17;4.88;;;2.05;;
17826;SDS011;9038;48.208;16.308;2023-07-13T04:23:19;3.28;;;2.70;;
17826;SDS011;9038;48.208;16.308;2023-07-13T04:25:21;3.00;;;2.53;;
